Time,TemperatureF,DewpointF,PressureIn,WindDirection,WindDirectionDegrees,WindSpeedMPH,WindSpeedGustMPH,Humidity,HourlyPrecipIn,Conditions,Clouds,dailyrainin,SoftwareType,DateUTC
2013-09-04 00:03:00,61.0,45.2,29.96,SSE,163,0.0,0.0,56,0.00,,,0.00,VWS V14.01,2013-09-04 07:03:00,
2013-09-04 00:08:00,60.8,45.5,29.96,SSE,164,0.0,0.0,57,0.00,,,0.00,VWS V14.01,2013-09-04 07:08:00,
2013-09-04 00:13:00,60.8,45.5,29.96,SSE,147,3.1,3.1,57,0.00,,,0.00,VWS V14.01,2013-09-04 07:13:00,
2013-09-04 00:18:00,60.6,45.8,29.96,SE,141,2.7,2.7,58,0.00,,,0.00,VWS V14.01,2013-09-04 07:18:00,
2013-09-04 00:23:00,60.8,46.0,29.96,SW,216,3.1,3.6,58,0.00,,,0.00,VWS V14.01,2013-09-04 07:23:00,
2013-09-04 00:28:00,60.8,46.0,29.96,SW,216,3.1,3.1,58,0.00,,,0.00,VWS V14.01,2013-09-04 07:28:00,
2013-09-04 00:33:00,61.0,46.1,29.96,South,185,3.6,3.6,58,0.00,,,0.00,VWS V14.01,2013-09-04 07:33:00,
2013-09-04 00:38:00,61.0,46.6,29.96,South,180,0.0,0.0,59,0.00,,,0.00,VWS V14.01,2013-09-04 07:38:00,
2013-09-04 00:43:00,61.0,46.6,29.96,SSW,207,2.7,2.7,59,0.00,,,0.00,VWS V14.01,2013-09-04 07:43:00,
2013-09-04 00:48:00,61.0,47.0,29.96,SSW,201,0.0,0.0,60,0.00,,,0.00,VWS V14.01,2013-09-04 07:48:00,
2013-09-04 00:53:00,61.2,47.2,29.96,SW,216,3.1,3.1,60,0.00,,,0.00,VWS V14.01,2013-09-04 07:53:00,
2013-09-04 00:58:00,61.2,47.6,29.96,SE,146,0.0,2.2,61,0.00,,,0.00,VWS V14.01,2013-09-04 07:58:00,
2013-09-04 01:03:00,61.2,47.6,29.96,SW,221,0.0,0.0,61,0.00,,,0.00,VWS V14.01,2013-09-04 08:03:00,
2013-09-04 01:08:00,61.2,48.0,29.96,SSW,212,3.6,4.0,62,0.00,,,0.00,VWS V14.01,2013-09-04 08:08:00,
2013-09-04 01:13:00,61.0,47.9,29.96,SSW,211,2.2,3.1,62,0.00,,,0.00,VWS V14.01,2013-09-04 08:13:00,
2013-09-04 01:18:00,61.0,48.3,29.96,SSW,210,0.0,0.0,63,0.00,,,0.00,VWS V14.01,2013-09-04 08:18:00,
2013-09-04 01:23:00,61.0,48.3,29.96,SW,216,0.0,0.0,63,0.00,,,0.00,VWS V14.01,2013-09-04 08:23:00,
2013-09-04 01:28:00,61.0,48.7,29.96,SW,216,0.0,0.0,64,0.00,,,0.00,VWS V14.01,2013-09-04 08:28:00,
2013-09-04 01:33:00,61.0,48.7,29.96,SW,216,0.0,0.0,64,0.00,,,0.00,VWS V14.01,2013-09-04 08:33:00,
2013-09-04 01:38:00,61.0,48.7,29.96,South,185,0.0,2.7,64,0.00,,,0.00,VWS V14.01,2013-09-04 08:38:00,
2013-09-04 01:43:00,61.0,48.7,29.96,South,182,3.6,3.6,64,0.00,,,0.00,VWS V14.01,2013-09-04 08:43:00,
2013-09-04 01:48:00,61.0,48.7,29.96,SSE,156,0.0,3.1,64,0.00,,,0.00,VWS V14.01,2013-09-04 08:48:00,
2013-09-04 01:53:00,60.8,48.6,29.96,SE,143,0.0,0.0,64,0.00,,,0.00,VWS V14.01,2013-09-04 08:53:00,
2013-09-04 01:58:00,60.8,48.6,29.96,SSW,193,2.2,2.2,64,0.00,,,0.00,VWS V14.01,2013-09-04 08:58:00,
2013-09-04 02:03:00,60.8,49.0,29.96,SE,138,0.0,3.6,65,0.00,,,0.00,VWS V14.01,2013-09-04 09:03:00,
2013-09-04 02:08:00,60.8,49.0,29.96,SW,218,0.0,0.0,65,0.00,,,0.00,VWS V14.01,2013-09-04 09:08:00,
2013-09-04 02:13:00,60.6,48.8,29.96,SSW,193,0.0,2.2,65,0.00,,,0.00,VWS V14.01,2013-09-04 09:13:00,
2013-09-04 02:18:00,60.6,48.8,29.96,South,171,0.0,3.1,65,0.00,,,0.00,VWS V14.01,2013-09-04 09:18:00,
2013-09-04 02:23:00,60.6,48.8,29.96,SSW,200,2.2,2.7,65,0.00,,,0.00,VWS V14.01,2013-09-04 09:23:00,
2013-09-04 02:28:00,60.6,48.8,29.96,SSE,167,0.0,3.1,65,0.00,,,0.00,VWS V14.01,2013-09-04 09:28:00,
2013-09-04 02:33:00,60.6,48.8,29.96,SSW,202,0.0,0.0,65,0.00,,,0.00,VWS V14.01,2013-09-04 09:33:00,
2013-09-04 02:38:00,60.6,49.2,29.96,SW,219,3.1,3.6,66,0.00,,,0.00,VWS V14.01,2013-09-04 09:38:00,
2013-09-04 02:43:00,60.6,49.2,29.96,SSW,198,0.0,2.7,66,0.00,,,0.00,VWS V14.01,2013-09-04 09:43:00,
2013-09-04 02:48:00,60.6,49.2,29.96,SSW,204,0.0,2.7,66,0.00,,,0.00,VWS V14.01,2013-09-04 09:48:00,
2013-09-04 02:53:00,60.6,49.2,29.96,South,182,0.0,3.1,66,0.00,,,0.00,VWS V14.01,2013-09-04 09:53:00,
2013-09-04 02:58:00,60.6,48.8,29.96,SSW,211,0.0,3.1,65,0.00,,,0.00,VWS V14.01,2013-09-04 09:58:00,
2013-09-04 03:03:00,60.6,48.8,29.96,SSW,197,2.7,3.6,65,0.00,,,0.00,VWS V14.01,2013-09-04 10:03:00,
2013-09-04 03:08:00,60.6,48.8,29.96,SSW,195,3.6,3.6,65,0.00,,,0.00,VWS V14.01,2013-09-04 10:08:00,
2013-09-04 03:13:00,60.4,48.6,29.96,South,171,0.0,2.2,65,0.00,,,0.00,VWS V14.01,2013-09-04 10:13:00,
2013-09-04 03:18:00,60.4,48.6,29.96,SW,216,2.7,4.0,65,0.00,,,0.00,VWS V14.01,2013-09-04 10:18:00,
2013-09-04 03:23:00,60.4,48.6,29.96,South,172,0.0,3.1,65,0.00,,,0.00,VWS V14.01,2013-09-04 10:23:00,
2013-09-04 03:28:00,60.4,48.6,29.96,SE,144,6.3,6.3,65,0.00,,,0.00,VWS V14.01,2013-09-04 10:28:00,
2013-09-04 03:33:00,60.4,48.6,29.96,SE,143,0.0,0.0,65,0.00,,,0.00,VWS V14.01,2013-09-04 10:33:00,
2013-09-04 03:38:00,60.4,48.6,29.99,SSE,156,0.0,0.0,65,0.00,,,0.00,VWS V14.01,2013-09-04 10:38:00,
2013-09-04 03:43:00,60.3,48.5,29.99,SSW,203,2.7,2.7,65,0.00,,,0.00,VWS V14.01,2013-09-04 10:43:00,
2013-09-04 03:49:00,60.1,48.3,29.99,SSW,195,0.0,0.0,65,0.00,,,0.00,VWS V14.01,2013-09-04 10:49:00,
2013-09-04 03:53:00,60.1,48.3,29.99,SSW,194,0.0,0.0,65,0.00,,,0.00,VWS V14.01,2013-09-04 10:53:00,
2013-09-04 03:58:00,59.9,47.7,29.99,SSW,194,0.0,0.0,64,0.00,,,0.00,VWS V14.01,2013-09-04 10:58:00,
2013-09-04 04:04:00,59.7,47.5,29.99,SSW,195,0.0,0.0,64,0.00,,,0.00,VWS V14.01,2013-09-04 11:04:00,
2013-09-04 04:09:00,59.7,48.0,29.96,SE,140,0.0,0.0,65,0.00,,,0.00,VWS V14.01,2013-09-04 11:09:00,
2013-09-04 04:14:00,59.7,48.0,29.96,SSE,156,0.0,0.0,65,0.00,,,0.00,VWS V14.01,2013-09-04 11:14:00,
2013-09-04 04:19:00,59.7,48.0,29.96,SSE,156,2.2,2.2,65,0.00,,,0.00,VWS V14.01,2013-09-04 11:19:00,
2013-09-04 04:24:00,59.7,48.0,29.96,SSW,208,3.1,3.1,65,0.00,,,0.00,VWS V14.01,2013-09-04 11:24:00,
2013-09-04 04:29:00,59.5,47.8,29.96,SSW,204,0.0,0.0,65,0.00,,,0.00,VWS V14.01,2013-09-04 11:29:00,
2013-09-04 04:34:00,59.5,47.8,29.96,SSW,205,0.0,0.0,65,0.00,,,0.00,VWS V14.01,2013-09-04 11:34:00,
2013-09-04 04:39:00,59.4,47.2,29.96,SSW,205,0.0,0.0,64,0.00,,,0.00,VWS V14.01,2013-09-04 11:39:00,
2013-09-04 04:44:00,59.4,47.6,29.96,SSW,204,0.0,0.0,65,0.00,,,0.00,VWS V14.01,2013-09-04 11:44:00,
2013-09-04 04:49:00,59.4,47.6,29.96,SSW,204,0.0,0.0,65,0.00,,,0.00,VWS V14.01,2013-09-04 11:49:00,
2013-09-04 04:54:00,59.4,47.6,29.96,SSW,205,0.0,0.0,65,0.00,,,0.00,VWS V14.01,2013-09-04 11:54:00,
2013-09-04 04:59:00,59.4,47.6,29.96,SSW,205,0.0,0.0,65,0.00,,,0.00,VWS V14.01,2013-09-04 11:59:00,
2013-09-04 05:04:00,59.4,47.6,29.96,SSW,205,0.0,0.0,65,0.00,,,0.00,VWS V14.01,2013-09-04 12:04:00,
2013-09-04 05:09:00,59.2,47.4,29.96,SSW,205,0.0,0.0,65,0.00,,,0.00,VWS V14.01,2013-09-04 12:09:00,
2013-09-04 05:14:00,59.2,47.4,29.96,SSW,205,0.0,0.0,65,0.00,,,0.00,VWS V14.01,2013-09-04 12:14:00,
2013-09-04 05:19:00,59.2,47.4,29.96,SSW,205,0.0,0.0,65,0.00,,,0.00,VWS V14.01,2013-09-04 12:19:00,
2013-09-04 05:24:00,59.2,47.4,29.99,SSW,205,0.0,0.0,65,0.00,,,0.00,VWS V14.01,2013-09-04 12:24:00,
2013-09-04 05:29:00,59.2,47.4,29.99,SSW,205,0.0,0.0,65,0.00,,,0.00,VWS V14.01,2013-09-04 12:29:00,
2013-09-04 05:34:00,59.2,47.4,29.99,SSE,158,0.0,3.1,65,0.00,,,0.00,VWS V14.01,2013-09-04 12:34:00,
2013-09-04 05:39:00,59.4,48.0,29.96,SE,137,0.0,0.0,66,0.00,,,0.00,VWS V14.01,2013-09-04 12:39:00,
2013-09-04 05:44:00,59.4,48.0,29.96,SSE,162,0.0,0.0,66,0.00,,,0.00,VWS V14.01,2013-09-04 12:44:00,
2013-09-04 05:49:00,59.4,48.0,29.96,SE,126,0.0,0.0,66,0.00,,,0.00,VWS V14.01,2013-09-04 12:49:00,
2013-09-04 05:54:00,59.2,47.8,29.99,SSE,147,0.0,0.0,66,0.00,,,0.00,VWS V14.01,2013-09-04 12:54:00,
2013-09-04 05:59:00,59.2,47.8,29.99,SSE,158,0.0,2.2,66,0.00,,,0.00,VWS V14.01,2013-09-04 12:59:00,
2013-09-04 06:04:00,59.2,47.8,29.99,South,182,0.0,3.1,66,0.00,,,0.00,VWS V14.01,2013-09-04 13:04:00,
2013-09-04 06:09:00,59.2,47.8,29.99,SSE,149,0.0,0.0,66,0.00,,,0.00,VWS V14.01,2013-09-04 13:09:00,
2013-09-04 06:14:00,59.2,48.2,29.99,South,186,0.0,0.0,67,0.00,,,0.00,VWS V14.01,2013-09-04 13:14:00,
2013-09-04 06:19:00,59.4,48.4,29.99,South,177,0.0,0.0,67,0.00,,,0.00,VWS V14.01,2013-09-04 13:19:00,
2013-09-04 06:24:00,59.4,48.4,29.99,SW,229,2.2,2.2,67,0.00,,,0.00,VWS V14.01,2013-09-04 13:24:00,
2013-09-04 06:29:00,59.5,48.6,29.99,South,188,0.0,0.0,67,0.00,,,0.00,VWS V14.01,2013-09-04 13:29:00,
2013-09-04 06:34:00,59.4,48.4,29.99,South,173,0.0,0.0,67,0.00,,,0.00,VWS V14.01,2013-09-04 13:34:00,
2013-09-04 06:39:00,59.4,48.4,29.99,SE,131,0.0,0.0,67,0.00,,,0.00,VWS V14.01,2013-09-04 13:39:00,
2013-09-04 06:44:00,59.4,48.4,29.99,South,169,0.0,0.0,67,0.00,,,0.00,VWS V14.01,2013-09-04 13:44:00,
2013-09-04 06:49:00,59.4,48.8,29.99,South,180,0.0,0.0,68,0.00,,,0.00,VWS V14.01,2013-09-04 13:49:00,
2013-09-04 06:54:00,59.5,49.0,29.99,SSE,153,2.2,2.2,68,0.00,,,0.00,VWS V14.01,2013-09-04 13:54:00,
2013-09-04 06:59:00,59.5,49.0,29.99,SSW,197,0.0,0.0,68,0.00,,,0.00,VWS V14.01,2013-09-04 13:59:00,
2013-09-04 07:04:00,59.7,49.2,29.99,South,183,0.0,0.0,68,0.00,,,0.00,VWS V14.01,2013-09-04 14:04:00,
2013-09-04 07:09:00,59.5,49.0,30.02,SSE,150,0.0,0.0,68,0.00,,,0.00,VWS V14.01,2013-09-04 14:09:00,
2013-09-04 07:14:00,59.5,49.0,30.02,SSE,150,0.0,0.0,68,0.00,,,0.00,VWS V14.01,2013-09-04 14:14:00,
2013-09-04 07:19:00,59.7,49.2,30.02,SW,230,0.0,0.0,68,0.00,,,0.00,VWS V14.01,2013-09-04 14:19:00,
2013-09-04 07:24:00,59.7,49.2,30.02,SW,230,0.0,0.0,68,0.00,,,0.00,VWS V14.01,2013-09-04 14:24:00,
2013-09-04 07:29:00,59.7,49.2,30.02,SW,230,0.0,0.0,68,0.00,,,0.00,VWS V14.01,2013-09-04 14:29:00,
2013-09-04 07:34:00,59.7,49.2,30.02,South,172,0.0,0.0,68,0.00,,,0.00,VWS V14.01,2013-09-04 14:34:00,
2013-09-04 07:39:00,59.7,49.2,30.02,South,172,0.0,0.0,68,0.00,,,0.00,VWS V14.01,2013-09-04 14:39:00,
2013-09-04 07:44:00,59.9,49.3,30.02,South,191,2.2,2.2,68,0.00,,,0.00,VWS V14.01,2013-09-04 14:44:00,
2013-09-04 07:49:00,60.1,49.9,30.02,SSW,207,0.0,0.0,69,0.00,,,0.00,VWS V14.01,2013-09-04 14:49:00,
2013-09-04 07:54:00,60.4,50.2,30.02,South,172,0.0,0.0,69,0.00,,,0.00,VWS V14.01,2013-09-04 14:54:00,
2013-09-04 07:59:00,60.8,50.6,30.02,South,181,0.0,0.0,69,0.00,,,0.00,VWS V14.01,2013-09-04 14:59:00,
2013-09-04 08:04:00,61.2,51.3,30.02,SSE,165,2.2,2.2,70,0.00,,,0.00,VWS V14.01,2013-09-04 15:04:00,
2013-09-04 08:09:00,61.5,51.7,30.02,SSE,165,0.0,0.0,70,0.00,,,0.00,VWS V14.01,2013-09-04 15:09:00,
2013-09-04 08:14:00,61.7,51.4,30.02,SSE,147,0.0,0.0,69,0.00,,,0.00,VWS V14.01,2013-09-04 15:14:00,
2013-09-04 08:19:00,61.9,52.0,30.02,SSW,195,3.1,3.1,70,0.00,,,0.00,VWS V14.01,2013-09-04 15:19:00,
2013-09-04 08:24:00,62.2,52.3,30.02,SE,140,0.0,0.0,70,0.00,,,0.00,VWS V14.01,2013-09-04 15:24:00,
2013-09-04 08:29:00,62.6,52.3,30.02,SSW,200,0.0,0.0,69,0.00,,,0.00,VWS V14.01,2013-09-04 15:29:00,
2013-09-04 08:34:00,63.0,52.6,30.02,SSE,160,0.0,2.7,69,0.00,,,0.00,VWS V14.01,2013-09-04 15:34:00,
2013-09-04 08:39:00,63.1,52.8,30.02,South,171,0.0,0.0,69,0.00,,,0.00,VWS V14.01,2013-09-04 15:39:00,
2013-09-04 08:44:00,63.1,52.4,30.02,SW,236,0.0,0.0,68,0.00,,,0.00,VWS V14.01,2013-09-04 15:44:00,
2013-09-04 08:49:00,63.3,52.2,30.02,SW,231,3.6,3.6,67,0.00,,,0.00,VWS V14.01,2013-09-04 15:49:00,
2013-09-04 08:54:00,63.5,52.0,30.02,SSW,206,0.0,0.0,66,0.00,,,0.00,VWS V14.01,2013-09-04 15:54:00,
2013-09-04 08:59:00,63.9,51.5,30.02,SSE,156,2.7,2.7,64,0.00,,,0.00,VWS V14.01,2013-09-04 15:59:00,
2013-09-04 09:04:00,64.4,51.5,30.02,SW,220,3.6,3.6,63,0.00,,,0.00,VWS V14.01,2013-09-04 16:04:00,
2013-09-04 09:09:00,64.4,49.3,30.02,SW,223,3.6,3.6,58,0.00,,,0.00,VWS V14.01,2013-09-04 16:09:00,
2013-09-04 09:14:00,64.8,48.2,30.02,SSW,211,0.0,0.0,55,0.00,,,0.00,VWS V14.01,2013-09-04 16:14:00,
2013-09-04 09:19:00,65.1,47.6,30.02,SSE,147,0.0,2.2,53,0.00,,,0.00,VWS V14.01,2013-09-04 16:19:00,
2013-09-04 09:24:00,65.3,46.7,30.02,South,184,0.0,0.0,51,0.00,,,0.00,VWS V14.01,2013-09-04 16:24:00,
2013-09-04 09:29:00,65.7,45.5,30.02,SSE,160,2.7,2.7,48,0.00,,,0.00,VWS V14.01,2013-09-04 16:29:00,
2013-09-04 09:34:00,65.7,44.3,30.02,WSW,245,5.4,5.4,46,0.00,,,0.00,VWS V14.01,2013-09-04 16:34:00,
2013-09-04 09:39:00,65.8,43.3,30.02,SW,232,0.0,0.0,44,0.00,,,0.00,VWS V14.01,2013-09-04 16:39:00,
2013-09-04 09:44:00,65.8,42.7,30.02,SW,217,2.2,2.2,43,0.00,,,0.00,VWS V14.01,2013-09-04 16:44:00,
2013-09-04 09:49:00,65.8,39.5,30.02,SSW,208,4.0,4.9,38,0.00,,,0.00,VWS V14.01,2013-09-04 16:49:00,
2013-09-04 09:54:00,66.0,39.0,30.02,SW,229,0.0,0.0,37,0.00,,,0.00,VWS V14.01,2013-09-04 16:54:00,
2013-09-04 09:59:00,66.2,37.8,30.02,South,191,2.7,2.7,35,0.00,,,0.00,VWS V14.01,2013-09-04 16:59:00,
2013-09-04 10:04:00,66.2,36.3,30.02,WSW,253,2.7,4.0,33,0.00,,,0.00,VWS V14.01,2013-09-04 17:04:00,
2013-09-04 10:09:00,66.0,34.5,30.02,SW,220,3.6,5.4,31,0.00,,,0.00,VWS V14.01,2013-09-04 17:09:00,
2013-09-04 10:14:00,66.2,33.9,30.02,South,186,3.6,3.6,30,0.00,,,0.00,VWS V14.01,2013-09-04 17:14:00,
2013-09-04 10:19:00,66.7,31.7,30.02,SSW,204,0.0,0.0,27,0.00,,,0.00,VWS V14.01,2013-09-04 17:19:00,
2013-09-04 10:24:00,67.1,30.1,30.02,SSW,206,3.1,3.1,25,0.00,,,0.00,VWS V14.01,2013-09-04 17:24:00,
2013-09-04 10:29:00,67.5,29.4,30.02,SW,231,4.9,4.9,24,0.00,,,0.00,VWS V14.01,2013-09-04 17:29:00,
2013-09-04 10:34:00,67.8,29.7,30.02,SSW,212,3.1,4.0,24,0.00,,,0.00,VWS V14.01,2013-09-04 17:34:00,
2013-09-04 10:39:00,68.0,28.9,30.02,SW,216,4.0,4.0,23,0.00,,,0.00,VWS V14.01,2013-09-04 17:39:00,
2013-09-04 10:44:00,68.2,29.0,30.02,SSE,168,3.6,5.4,23,0.00,,,0.00,VWS V14.01,2013-09-04 17:44:00,
2013-09-04 10:49:00,68.5,28.2,30.02,SSW,206,3.6,3.6,22,0.00,,,0.00,VWS V14.01,2013-09-04 17:49:00,
2013-09-04 10:54:00,68.9,26.2,30.02,SSE,160,3.1,5.4,20,0.00,,,0.00,VWS V14.01,2013-09-04 17:54:00,
2013-09-04 10:59:00,69.4,26.7,30.02,WSW,246,4.0,4.0,20,0.00,,,0.00,VWS V14.01,2013-09-04 17:59:00,
2013-09-04 11:04:00,69.4,22.8,30.02,ESE,111,4.9,4.9,17,0.00,,,0.00,VWS V14.01,2013-09-04 18:04:00,
2013-09-04 11:09:00,70.0,23.2,30.02,SW,236,4.0,4.0,17,0.00,,,0.00,VWS V14.01,2013-09-04 18:09:00,
2013-09-04 11:14:00,70.5,19.1,30.02,WSW,246,5.4,5.4,14,0.00,,,0.00,VWS V14.01,2013-09-04 18:14:00,
2013-09-04 11:19:00,70.9,19.4,30.02,WSW,254,2.7,4.9,14,0.00,,,0.00,VWS V14.01,2013-09-04 18:19:00,
2013-09-04 11:24:00,70.9,19.4,30.02,WSW,237,6.3,6.3,14,0.00,,,0.00,VWS V14.01,2013-09-04 18:24:00,
2013-09-04 11:29:00,71.2,19.6,30.02,WSW,245,3.6,3.6,14,0.00,,,0.00,VWS V14.01,2013-09-04 18:29:00,
2013-09-04 11:34:00,71.2,19.6,30.02,SW,221,5.8,5.8,14,0.00,,,0.00,VWS V14.01,2013-09-04 18:34:00,
2013-09-04 11:39:00,71.2,19.6,30.02,WSW,258,6.3,6.3,14,0.00,,,0.00,VWS V14.01,2013-09-04 18:39:00,
2013-09-04 11:44:00,71.2,19.6,30.02,WSW,248,5.8,5.8,14,0.00,,,0.00,VWS V14.01,2013-09-04 18:44:00,
2013-09-04 11:49:00,71.4,19.8,30.02,WSW,249,3.1,5.8,14,0.00,,,0.00,VWS V14.01,2013-09-04 18:49:00,
2013-09-04 11:54:00,71.2,19.6,30.02,SW,232,4.0,6.3,14,0.00,,,0.00,VWS V14.01,2013-09-04 18:54:00,
2013-09-04 11:59:00,71.6,19.9,30.02,SW,225,5.4,7.6,14,0.00,,,0.00,VWS V14.01,2013-09-04 18:59:00,
2013-09-04 12:04:00,71.8,20.1,30.02,SW,232,4.0,5.8,14,0.00,,,0.00,VWS V14.01,2013-09-04 19:04:00,
2013-09-04 12:09:00,72.0,20.2,30.02,South,172,3.1,4.0,14,0.00,,,0.00,VWS V14.01,2013-09-04 19:09:00,
2013-09-04 12:14:00,72.5,20.6,30.02,WSW,237,4.0,5.8,14,0.00,,,0.00,VWS V14.01,2013-09-04 19:14:00,
2013-09-04 12:19:00,72.9,15.3,30.02,WSW,258,3.1,4.5,11,0.00,,,0.00,VWS V14.01,2013-09-04 19:19:00,
2013-09-04 12:24:00,73.0,15.5,30.02,West,280,6.3,6.3,11,0.00,,,0.00,VWS V14.01,2013-09-04 19:24:00,
2013-09-04 12:29:00,72.1,14.8,30.02,WSW,237,6.3,6.3,11,0.00,,,0.00,VWS V14.01,2013-09-04 19:29:00,
2013-09-04 12:34:00,71.8,20.1,30.02,WSW,246,5.8,5.8,14,0.00,,,0.00,VWS V14.01,2013-09-04 19:34:00,
2013-09-04 12:39:00,72.1,20.4,30.02,SSW,205,4.9,6.3,14,0.00,,,0.00,VWS V14.01,2013-09-04 19:39:00,
2013-09-04 12:44:00,72.3,20.5,30.02,SSW,197,8.3,8.3,14,0.00,,,0.00,VWS V14.01,2013-09-04 19:44:00,
2013-09-04 12:49:00,72.7,20.8,30.02,WSW,258,5.8,5.8,14,0.00,,,0.00,VWS V14.01,2013-09-04 19:49:00,
2013-09-04 12:54:00,72.5,15.0,30.02,WSW,238,3.1,4.9,11,0.00,,,0.00,VWS V14.01,2013-09-04 19:54:00,
2013-09-04 12:59:00,72.9,15.3,30.02,SW,217,5.8,5.8,11,0.00,,,0.00,VWS V14.01,2013-09-04 19:59:00,
2013-09-04 13:04:00,73.0,15.5,30.02,WSW,243,4.0,5.4,11,0.00,,,0.00,VWS V14.01,2013-09-04 20:04:00,
2013-09-04 13:09:00,73.6,15.9,30.02,SSW,206,4.0,4.9,11,0.00,,,0.00,VWS V14.01,2013-09-04 20:09:00,
2013-09-04 13:14:00,73.9,16.1,30.02,South,184,3.6,5.8,11,0.00,,,0.00,VWS V14.01,2013-09-04 20:14:00,
2013-09-04 13:19:00,73.9,16.1,30.02,SW,229,5.4,5.4,11,0.00,,,0.00,VWS V14.01,2013-09-04 20:19:00,
2013-09-04 13:24:00,73.6,15.9,30.02,SSW,208,3.6,6.3,11,0.00,,,0.00,VWS V14.01,2013-09-04 20:24:00,
2013-09-04 13:29:00,73.6,15.9,30.02,SW,231,8.7,8.7,11,0.00,,,0.00,VWS V14.01,2013-09-04 20:29:00,
2013-09-04 13:34:00,73.8,16.0,30.02,SW,216,4.0,5.8,11,0.00,,,0.00,VWS V14.01,2013-09-04 20:34:00,
2013-09-04 13:39:00,73.9,16.1,30.02,South,177,4.0,4.0,11,0.00,,,0.00,VWS V14.01,2013-09-04 20:39:00,
2013-09-04 13:44:00,73.9,16.1,30.02,SSW,207,2.7,3.1,11,0.00,,,0.00,VWS V14.01,2013-09-04 20:44:00,
2013-09-04 13:50:00,74.1,16.3,30.02,SW,227,3.1,5.4,11,0.00,,,0.00,VWS V14.01,2013-09-04 20:50:00,
2013-09-04 13:55:00,74.5,16.6,30.02,SW,226,4.9,4.9,11,0.00,,,0.00,VWS V14.01,2013-09-04 20:55:00,
2013-09-04 14:00:00,75.0,17.0,30.02,SSW,197,3.1,11.0,11,0.00,,,0.00,VWS V14.01,2013-09-04 21:00:00,
2013-09-04 14:05:00,75.4,15.1,29.99,South,182,3.6,5.4,10,0.00,,,0.00,VWS V14.01,2013-09-04 21:05:00,
2013-09-04 14:10:00,75.4,15.1,29.99,SW,231,3.6,6.3,10,0.00,,,0.00,VWS V14.01,2013-09-04 21:10:00,
2013-09-04 14:15:00,75.4,15.1,29.99,SSW,193,4.5,5.4,10,0.00,,,0.00,VWS V14.01,2013-09-04 21:15:00,
2013-09-04 14:20:00,75.7,15.4,29.99,SW,216,3.6,3.6,10,0.00,,,0.00,VWS V14.01,2013-09-04 21:20:00,
2013-09-04 14:25:00,76.6,16.0,29.99,SSE,150,4.0,5.4,10,0.00,,,0.00,VWS V14.01,2013-09-04 21:25:00,
2013-09-04 14:30:00,77.2,11.4,29.99,SSW,204,2.7,3.6,8,0.00,,,0.00,VWS V14.01,2013-09-04 21:30:00,
2013-09-04 14:35:00,77.4,11.5,29.99,SSW,203,5.4,5.4,8,0.00,,,0.00,VWS V14.01,2013-09-04 21:35:00,
2013-09-04 14:40:00,77.4,11.5,29.99,South,187,6.3,6.3,8,0.00,,,0.00,VWS V14.01,2013-09-04 21:40:00,
2013-09-04 14:45:00,77.2,11.4,29.99,SSE,168,3.6,5.8,8,0.00,,,0.00,VWS V14.01,2013-09-04 21:45:00,
2013-09-04 14:50:00,77.5,11.6,29.99,SW,220,2.2,4.0,8,0.00,,,0.00,VWS V14.01,2013-09-04 21:50:00,
2013-09-04 14:55:00,78.1,12.0,29.99,SW,219,3.1,5.4,8,0.00,,,0.00,VWS V14.01,2013-09-04 21:55:00,
2013-09-04 15:00:00,78.3,12.2,29.99,SW,222,4.5,5.4,8,0.00,,,0.00,VWS V14.01,2013-09-04 22:00:00,
2013-09-04 15:05:00,77.9,11.9,29.99,SW,236,5.4,8.1,8,0.00,,,0.00,VWS V14.01,2013-09-04 22:05:00,
2013-09-04 15:10:00,77.7,11.8,29.99,SE,139,3.6,5.8,8,0.00,,,0.00,VWS V14.01,2013-09-04 22:10:00,
2013-09-04 15:15:00,77.5,11.6,29.99,SW,215,3.1,4.0,8,0.00,,,0.00,VWS V14.01,2013-09-04 22:15:00,
2013-09-04 15:20:00,77.9,11.9,29.99,SW,227,3.1,3.6,8,0.00,,,0.00,VWS V14.01,2013-09-04 22:20:00,
2013-09-04 15:25:00,77.9,11.9,29.99,SW,223,4.0,5.4,8,0.00,,,0.00,VWS V14.01,2013-09-04 22:25:00,
2013-09-04 15:30:00,77.5,11.6,29.99,SW,233,2.7,5.8,8,0.00,,,0.00,VWS V14.01,2013-09-04 22:30:00,
2013-09-04 15:35:00,77.4,11.5,29.99,SW,228,5.8,7.6,8,0.00,,,0.00,VWS V14.01,2013-09-04 22:35:00,
2013-09-04 15:40:00,76.8,11.1,29.99,WSW,252,5.8,9.6,8,0.00,,,0.00,VWS V14.01,2013-09-04 22:40:00,
2013-09-04 15:45:00,77.0,11.2,29.99,SSW,202,5.4,5.4,8,0.00,,,0.00,VWS V14.01,2013-09-04 22:45:00,
2013-09-04 15:50:00,76.8,11.1,29.99,South,189,4.9,4.9,8,0.00,,,0.00,VWS V14.01,2013-09-04 22:50:00,
2013-09-04 15:55:00,77.0,11.2,29.99,South,187,4.0,4.0,8,0.00,,,0.00,VWS V14.01,2013-09-04 22:55:00,
2013-09-04 16:00:00,77.2,11.4,29.99,SSE,149,3.1,4.0,8,0.00,,,0.00,VWS V14.01,2013-09-04 23:00:00,
2013-09-04 16:05:00,77.5,11.6,29.96,SSE,153,6.3,6.3,8,0.00,,,0.00,VWS V14.01,2013-09-04 23:05:00,
2013-09-04 16:10:00,77.4,11.5,29.96,SW,225,4.0,4.9,8,0.00,,,0.00,VWS V14.01,2013-09-04 23:10:00,
2013-09-04 16:15:00,77.0,11.2,29.96,South,185,2.7,6.3,8,0.00,,,0.00,VWS V14.01,2013-09-04 23:15:00,
2013-09-04 16:20:00,76.8,11.1,29.96,SSE,167,0.0,4.0,8,0.00,,,0.00,VWS V14.01,2013-09-04 23:20:00,
2013-09-04 16:25:00,77.0,11.2,29.96,SSW,205,4.5,4.5,8,0.00,,,0.00,VWS V14.01,2013-09-04 23:25:00,
2013-09-04 16:30:00,77.0,11.2,29.96,SSW,210,3.1,4.0,8,0.00,,,0.00,VWS V14.01,2013-09-04 23:30:00,
2013-09-04 16:35:00,77.2,11.4,29.96,SW,223,4.9,5.4,8,0.00,,,0.00,VWS V14.01,2013-09-04 23:35:00,
2013-09-04 16:40:00,77.0,11.2,29.96,SSW,204,3.1,3.1,8,0.00,,,0.00,VWS V14.01,2013-09-04 23:40:00,
2013-09-04 16:45:00,76.8,11.1,29.96,WSW,240,4.9,4.9,8,0.00,,,0.00,VWS V14.01,2013-09-04 23:45:00,
2013-09-04 16:50:00,76.8,11.1,29.96,SW,220,5.4,5.4,8,0.00,,,0.00,VWS V14.01,2013-09-04 23:50:00,
2013-09-04 16:55:00,76.8,11.1,29.96,SW,219,5.4,5.4,8,0.00,,,0.00,VWS V14.01,2013-09-04 23:55:00,
2013-09-04 17:00:00,76.1,10.6,29.96,SW,226,5.8,5.8,8,0.00,,,0.00,VWS V14.01,2013-09-05 00:00:00,
2013-09-04 17:05:00,75.4,10.0,29.96,SW,229,3.1,3.6,8,0.00,,,0.00,VWS V14.01,2013-09-05 00:05:00,
2013-09-04 17:10:00,75.4,15.1,29.96,SE,131,4.0,4.0,10,0.00,,,0.00,VWS V14.01,2013-09-05 00:10:00,
2013-09-04 17:15:00,75.4,15.1,29.96,WSW,238,4.5,4.5,10,0.00,,,0.00,VWS V14.01,2013-09-05 00:15:00,
2013-09-04 17:20:00,75.7,10.3,29.96,SSW,203,5.4,5.4,8,0.00,,,0.00,VWS V14.01,2013-09-05 00:20:00,
2013-09-04 17:25:00,75.7,10.3,29.96,SSW,212,4.0,5.4,8,0.00,,,0.00,VWS V14.01,2013-09-05 00:25:00,
2013-09-04 17:30:00,75.6,10.2,29.96,WSW,246,4.0,5.4,8,0.00,,,0.00,VWS V14.01,2013-09-05 00:30:00,
2013-09-04 17:35:00,75.4,10.0,29.96,SSW,209,2.7,4.0,8,0.00,,,0.00,VWS V14.01,2013-09-05 00:35:00,
2013-09-04 17:40:00,75.2,9.9,29.96,WSW,254,3.1,3.1,8,0.00,,,0.00,VWS V14.01,2013-09-05 00:40:00,
2013-09-04 17:45:00,75.4,15.1,29.96,SW,217,5.8,6.3,10,0.00,,,0.00,VWS V14.01,2013-09-05 00:45:00,
2013-09-04 17:50:00,74.7,16.7,29.96,SW,220,4.9,4.9,11,0.00,,,0.00,VWS V14.01,2013-09-05 00:50:00,
2013-09-04 17:55:00,74.3,16.4,29.96,WSW,242,4.0,5.4,11,0.00,,,0.00,VWS V14.01,2013-09-05 00:55:00,
2013-09-04 18:00:00,74.3,16.4,29.96,SW,225,2.7,2.7,11,0.00,,,0.00,VWS V14.01,2013-09-05 01:00:00,
2013-09-04 18:05:00,74.3,16.4,29.96,WSW,239,4.9,5.8,11,0.00,,,0.00,VWS V14.01,2013-09-05 01:05:00,
2013-09-04 18:10:00,74.3,16.4,29.96,SSW,204,4.0,4.9,11,0.00,,,0.00,VWS V14.01,2013-09-05 01:10:00,
2013-09-04 18:15:00,73.9,16.1,29.96,SSW,210,5.4,5.4,11,0.00,,,0.00,VWS V14.01,2013-09-05 01:15:00,
2013-09-04 18:20:00,73.6,15.9,29.96,SW,232,5.8,5.8,11,0.00,,,0.00,VWS V14.01,2013-09-05 01:20:00,
2013-09-04 18:25:00,72.9,15.3,29.96,SW,227,5.4,6.3,11,0.00,,,0.00,VWS V14.01,2013-09-05 01:25:00,
2013-09-04 18:30:00,72.3,14.9,29.96,SSW,204,4.9,4.9,11,0.00,,,0.00,VWS V14.01,2013-09-05 01:30:00,
2013-09-04 18:35:00,72.3,14.9,29.96,SW,234,4.9,4.9,11,0.00,,,0.00,VWS V14.01,2013-09-05 01:35:00,
2013-09-04 18:40:00,72.0,14.6,29.96,SSW,192,5.8,5.8,11,0.00,,,0.00,VWS V14.01,2013-09-05 01:40:00,
2013-09-04 18:45:00,71.8,14.5,29.96,South,189,3.6,3.6,11,0.00,,,0.00,VWS V14.01,2013-09-05 01:45:00,
2013-09-04 18:50:00,71.6,14.4,29.96,WSW,243,4.0,4.0,11,0.00,,,0.00,VWS V14.01,2013-09-05 01:50:00,
2013-09-04 18:55:00,71.2,19.6,29.96,SSW,192,3.1,3.1,14,0.00,,,0.00,VWS V14.01,2013-09-05 01:55:00,
2013-09-04 19:00:00,70.9,19.4,29.96,SW,227,4.9,4.9,14,0.00,,,0.00,VWS V14.01,2013-09-05 02:00:00,
2013-09-04 19:05:00,70.2,23.4,29.96,SW,222,2.7,3.1,17,0.00,,,0.00,VWS V14.01,2013-09-05 02:05:00,
2013-09-04 19:10:00,69.6,22.9,29.96,SSW,207,2.2,3.1,17,0.00,,,0.00,VWS V14.01,2013-09-05 02:10:00,
2013-09-04 19:15:00,69.1,26.4,29.96,South,183,2.7,3.6,20,0.00,,,0.00,VWS V14.01,2013-09-05 02:15:00,
2013-09-04 19:20:00,68.4,28.1,29.93,SW,231,2.7,3.1,22,0.00,,,0.00,VWS V14.01,2013-09-05 02:20:00,
2013-09-04 19:25:00,67.6,28.5,29.93,SSW,203,3.1,3.1,23,0.00,,,0.00,VWS V14.01,2013-09-05 02:25:00,
2013-09-04 19:30:00,66.9,29.0,29.93,SSE,168,4.0,4.0,24,0.00,,,0.00,VWS V14.01,2013-09-05 02:30:00,
2013-09-04 19:35:00,66.2,29.4,29.96,South,170,3.1,3.6,25,0.00,,,0.00,VWS V14.01,2013-09-05 02:35:00,
2013-09-04 19:40:00,65.7,31.7,29.96,SSE,153,3.6,3.6,28,0.00,,,0.00,VWS V14.01,2013-09-05 02:40:00,
2013-09-04 19:45:00,65.1,33.8,29.96,South,189,3.6,3.6,31,0.00,,,0.00,VWS V14.01,2013-09-05 02:45:00,
2013-09-04 19:50:00,64.6,34.1,29.96,SE,131,0.0,0.0,32,0.00,,,0.00,VWS V14.01,2013-09-05 02:50:00,
2013-09-04 19:55:00,64.4,34.7,29.96,SE,130,3.1,3.1,33,0.00,,,0.00,VWS V14.01,2013-09-05 02:55:00,
2013-09-04 20:00:00,64.0,35.1,29.96,SW,225,0.0,0.0,34,0.00,,,0.00,VWS V14.01,2013-09-05 03:00:00,
2013-09-04 20:05:00,63.9,35.7,29.96,South,185,0.0,2.7,35,0.00,,,0.00,VWS V14.01,2013-09-05 03:05:00,
2013-09-04 20:10:00,63.5,36.1,29.96,SSW,199,0.0,2.7,36,0.00,,,0.00,VWS V14.01,2013-09-05 03:10:00,
2013-09-04 20:15:00,63.5,36.1,29.96,SW,227,3.6,3.6,36,0.00,,,0.00,VWS V14.01,2013-09-05 03:15:00,
2013-09-04 20:20:00,63.3,36.6,29.96,SSE,166,3.6,3.6,37,0.00,,,0.00,VWS V14.01,2013-09-05 03:20:00,
2013-09-04 20:25:00,63.0,37.0,29.96,SSE,150,3.1,4.0,38,0.00,,,0.00,VWS V14.01,2013-09-05 03:25:00,
2013-09-04 20:30:00,63.0,37.6,29.96,SSE,165,0.0,0.0,39,0.00,,,0.00,VWS V14.01,2013-09-05 03:30:00,
2013-09-04 20:35:00,62.8,37.5,29.96,SSE,168,2.7,3.6,39,0.00,,,0.00,VWS V14.01,2013-09-05 03:35:00,
2013-09-04 20:40:00,62.8,37.5,29.96,South,189,4.0,4.0,39,0.00,,,0.00,VWS V14.01,2013-09-05 03:40:00,
2013-09-04 20:45:00,62.6,38.0,29.96,SSW,194,3.6,3.6,40,0.00,,,0.00,VWS V14.01,2013-09-05 03:45:00,
2013-09-04 20:50:00,62.4,38.4,29.96,South,169,0.0,0.0,41,0.00,,,0.00,VWS V14.01,2013-09-05 03:50:00,
2013-09-04 20:55:00,62.2,38.3,29.96,SE,133,0.0,3.6,41,0.00,,,0.00,VWS V14.01,2013-09-05 03:55:00,
2013-09-04 21:00:00,62.2,38.9,29.96,SE,124,0.0,4.9,42,0.00,,,0.00,VWS V14.01,2013-09-05 04:00:00,
2013-09-04 21:01:00,62.2,38.9,29.96,South,173,2.7,4.9,42,0.00,,,0.00,VWS V14.01,2013-09-05 04:01:00,
2013-09-04 21:06:00,62.1,39.3,29.96,SW,219,4.0,4.0,43,0.00,,,0.00,VWS V14.01,2013-09-05 04:06:00,
2013-09-04 21:11:00,62.1,39.9,29.96,West,261,2.7,4.9,44,0.00,,,0.00,VWS V14.01,2013-09-05 04:11:00,
2013-09-04 21:16:00,61.9,39.8,29.96,SE,125,3.6,3.6,44,0.00,,,0.00,VWS V14.01,2013-09-05 04:16:00,
2013-09-04 21:21:00,61.9,40.3,29.96,SE,131,2.7,2.7,45,0.00,,,0.00,VWS V14.01,2013-09-05 04:21:00,
2013-09-04 21:26:00,61.7,40.2,29.96,SE,127,2.7,2.7,45,0.00,,,0.00,VWS V14.01,2013-09-05 04:26:00,
2013-09-04 21:31:00,61.7,40.2,29.96,SSE,157,0.0,4.0,45,0.00,,,0.00,VWS V14.01,2013-09-05 04:31:00,
2013-09-04 21:36:00,61.5,40.0,29.96,South,179,0.0,2.2,45,0.00,,,0.00,VWS V14.01,2013-09-05 04:36:00,
2013-09-04 21:41:00,61.5,40.0,29.96,SE,145,4.0,4.0,45,0.00,,,0.00,VWS V14.01,2013-09-05 04:41:00,
2013-09-04 21:46:00,61.3,40.4,29.96,SSE,157,0.0,0.0,46,0.00,,,0.00,VWS V14.01,2013-09-05 04:46:00,
2013-09-04 21:51:00,61.2,40.2,29.96,SE,134,2.7,2.7,46,0.00,,,0.00,VWS V14.01,2013-09-05 04:51:00,
2013-09-04 21:56:00,61.0,40.1,29.96,SE,131,0.0,0.0,46,0.00,,,0.00,VWS V14.01,2013-09-05 04:56:00,
2013-09-04 22:01:00,61.0,40.1,29.96,SW,233,0.0,3.1,46,0.00,,,0.00,VWS V14.01,2013-09-05 05:01:00,
2013-09-04 22:06:00,61.0,40.1,29.96,South,178,0.0,2.2,46,0.00,,,0.00,VWS V14.01,2013-09-05 05:06:00,
2013-09-04 22:11:00,60.8,40.5,29.96,ESE,110,0.0,3.1,47,0.00,,,0.00,VWS V14.01,2013-09-05 05:11:00,
2013-09-04 22:16:00,60.8,40.5,29.96,ESE,116,2.2,3.1,47,0.00,,,0.00,VWS V14.01,2013-09-05 05:16:00,
2013-09-04 22:21:00,61.0,40.6,29.96,SSE,167,4.5,4.5,47,0.00,,,0.00,VWS V14.01,2013-09-05 05:21:00,
2013-09-04 22:26:00,61.0,40.6,29.96,SE,128,0.0,0.0,47,0.00,,,0.00,VWS V14.01,2013-09-05 05:26:00,
2013-09-04 22:31:00,61.0,40.6,29.96,SSE,167,0.0,2.7,47,0.00,,,0.00,VWS V14.01,2013-09-05 05:31:00,
2013-09-04 22:36:00,61.0,40.6,29.96,SE,131,0.0,0.0,47,0.00,,,0.00,VWS V14.01,2013-09-05 05:36:00,
2013-09-04 22:41:00,60.8,41.0,29.96,South,172,2.2,2.7,48,0.00,,,0.00,VWS V14.01,2013-09-05 05:41:00,
2013-09-04 22:46:00,60.8,41.0,29.96,SSW,205,2.7,2.7,48,0.00,,,0.00,VWS V14.01,2013-09-05 05:46:00,
2013-09-04 22:51:00,60.8,41.0,29.96,SSE,147,3.6,4.0,48,0.00,,,0.00,VWS V14.01,2013-09-05 05:51:00,
2013-09-04 22:56:00,60.8,41.0,29.96,WSW,237,3.6,3.6,48,0.00,,,0.00,VWS V14.01,2013-09-05 05:56:00,
2013-09-04 23:01:00,60.8,41.0,29.96,SSE,157,3.1,3.6,48,0.00,,,0.00,VWS V14.01,2013-09-05 06:01:00,
2013-09-04 23:06:00,60.8,41.0,29.96,South,187,2.7,4.0,48,0.00,,,0.00,VWS V14.01,2013-09-05 06:06:00,
2013-09-04 23:11:00,60.8,41.5,29.96,ESE,106,3.1,4.0,49,0.00,,,0.00,VWS V14.01,2013-09-05 06:11:00,
2013-09-04 23:16:00,60.8,41.5,29.96,SSE,152,3.6,3.6,49,0.00,,,0.00,VWS V14.01,2013-09-05 06:16:00,
2013-09-04 23:21:00,60.8,41.5,29.96,SE,138,2.7,4.0,49,0.00,,,0.00,VWS V14.01,2013-09-05 06:21:00,
2013-09-04 23:26:00,60.6,41.9,29.96,South,177,0.0,0.0,50,0.00,,,0.00,VWS V14.01,2013-09-05 06:26:00,
2013-09-04 23:31:00,60.6,41.9,29.96,ENE,72,2.7,3.6,50,0.00,,,0.00,VWS V14.01,2013-09-05 06:31:00,
2013-09-04 23:36:00,60.6,41.9,29.96,SSE,167,3.1,3.6,50,0.00,,,0.00,VWS V14.01,2013-09-05 06:36:00,
2013-09-04 23:41:00,60.6,41.9,29.96,SW,216,3.1,3.1,50,0.00,,,0.00,VWS V14.01,2013-09-05 06:41:00,
2013-09-04 23:47:00,60.4,42.2,29.96,SE,140,0.0,0.0,51,0.00,,,0.00,VWS V14.01,2013-09-05 06:47:00,
2013-09-04 23:52:00,60.4,42.2,29.96,South,191,3.1,3.1,51,0.00,,,0.00,VWS V14.01,2013-09-05 06:52:00,
2013-09-04 23:57:00,60.4,42.2,29.96,SSW,213,3.1,3.6,51,0.00,,,0.00,VWS V14.01,2013-09-05 06:57:00,